createdAt,value
2022-08-26T00:00:20.105Z,88.67
2022-08-26T00:02:48.280Z,91.34
2022-08-26T00:05:16.586Z,90.27
2022-08-26T00:07:44.801Z,89.57
2022-08-26T00:10:13.799Z,90.64
2022-08-26T00:12:42.975Z,92.63
2022-08-26T00:15:14.975Z,92.90
2022-08-26T00:17:43.469Z,91.17
2022-08-26T00:20:14.267Z,91.54
2022-08-26T00:22:43.242Z,91.02
2022-08-26T00:25:12.827Z,93.17
2022-08-26T00:27:41.461Z,93.84
2022-08-26T00:30:16.787Z,94.03
2022-08-26T00:32:51.453Z,96.68
2022-08-26T00:35:20.731Z,96.05
2022-08-26T00:37:49.266Z,97.42
2022-08-26T00:40:23.834Z,98.78
2022-08-26T00:42:52.876Z,97.43
2022-08-26T00:45:21.254Z,97.89
2022-08-26T00:48:04.386Z,99.29
2022-08-26T00:50:43.360Z,99.88
2022-08-26T00:53:24.136Z,100.00
2022-08-26T00:56:42.954Z,100.00
2022-08-26T00:59:13.225Z,100.00
2022-08-26T01:01:44.441Z,100.00
2022-08-26T01:04:19.177Z,100.00
2022-08-26T01:06:50.815Z,100.00
2022-08-26T01:09:20.790Z,100.00
2022-08-26T01:11:51.603Z,100.00
2022-08-26T01:14:22.349Z,100.00
2022-08-26T01:16:51.010Z,100.00
2022-08-26T01:19:53.840Z,100.00
2022-08-26T01:23:06.895Z,100.00
2022-08-26T01:25:42.994Z,100.00
2022-08-26T01:28:17.734Z,100.00
2022-08-26T01:30:46.881Z,100.00
2022-08-26T01:33:21.337Z,100.00
2022-08-26T01:35:49.852Z,100.00
2022-08-26T01:38:19.937Z,100.00
2022-08-26T01:40:48.506Z,100.00
2022-08-26T01:43:24.229Z,100.00
2022-08-26T01:45:55.094Z,100.00
2022-08-26T01:48:29.768Z,100.00
2022-08-26T01:51:00.546Z,100.00
2022-08-26T01:53:32.168Z,100.00
2022-08-26T01:56:02.595Z,100.00
2022-08-26T01:58:45.946Z,100.00
2022-08-26T02:01:15.310Z,100.00
2022-08-26T02:03:58.413Z,100.00
2022-08-26T02:06:27.695Z,100.00
2022-08-26T02:08:58.193Z,100.00
2022-08-26T02:11:26.996Z,100.00
2022-08-26T02:14:02.958Z,100.00
2022-08-26T02:16:38.074Z,100.00
2022-08-26T02:19:30.481Z,100.00
2022-08-26T02:22:03.130Z,100.00
2022-08-26T02:24:57.128Z,100.00
2022-08-26T02:27:33.027Z,100.00
2022-08-26T02:30:17.423Z,100.00
2022-08-26T02:32:46.633Z,100.00
2022-08-26T02:35:20.631Z,100.00
2022-08-26T02:37:50.202Z,100.00
2022-08-26T02:40:25.773Z,100.00
2022-08-26T02:42:56.001Z,100.00
2022-08-26T02:45:27.637Z,100.00
2022-08-26T02:47:58.176Z,100.00
2022-08-26T02:50:28.923Z,100.00
2022-08-26T02:52:57.218Z,100.00
2022-08-26T02:55:26.020Z,100.00
2022-08-26T02:57:54.240Z,100.00
2022-08-26T03:00:23.952Z,100.00
2022-08-26T03:02:52.588Z,100.00
2022-08-26T03:05:23.991Z,100.00
2022-08-26T03:07:52.839Z,100.00
2022-08-26T03:10:22.762Z,100.00
2022-08-26T03:12:51.132Z,100.00
2022-08-26T03:15:20.753Z,100.00
2022-08-26T03:17:50.401Z,100.00
2022-08-26T03:20:19.050Z,100.00
2022-08-26T03:22:47.553Z,100.00
2022-08-26T03:25:17.717Z,100.00
2022-08-26T03:27:46.155Z,100.00
2022-08-26T03:30:35.126Z,100.00
2022-08-26T03:33:03.783Z,100.00
2022-08-26T03:35:33.638Z,100.00
2022-08-26T03:38:03.325Z,100.00
2022-08-26T03:40:33.959Z,100.00
2022-08-26T03:43:03.745Z,100.00
2022-08-26T03:45:32.413Z,100.00
2022-08-26T03:48:00.796Z,100.00
2022-08-26T03:50:34.263Z,100.00
2022-08-26T03:53:04.812Z,100.00
2022-08-26T03:55:35.759Z,100.00
2022-08-26T03:58:04.112Z,100.00
2022-08-26T04:00:32.661Z,100.00
2022-08-26T04:03:02.757Z,100.00
2022-08-26T04:05:31.485Z,100.00
2022-08-26T04:07:59.904Z,100.00
2022-08-26T04:10:29.093Z,100.00
2022-08-26T04:12:59.442Z,100.00
2022-08-26T04:15:27.620Z,100.00
2022-08-26T04:17:57.507Z,100.00
2022-08-26T04:20:26.532Z,100.00
2022-08-26T04:22:54.922Z,100.00
2022-08-26T04:25:24.262Z,100.00
2022-08-26T04:27:52.689Z,100.00
2022-08-26T04:30:21.349Z,100.00
2022-08-26T04:32:49.969Z,100.00
2022-08-26T04:35:20.861Z,100.00
2022-08-26T04:37:53.833Z,100.00
2022-08-26T04:40:22.817Z,100.00
2022-08-26T04:42:51.747Z,100.00
2022-08-26T04:45:22.800Z,100.00
2022-08-26T04:47:59.369Z,100.00
2022-08-26T04:50:27.741Z,100.00
2022-08-26T04:52:56.171Z,100.00
2022-08-26T04:55:39.828Z,100.00
2022-08-26T04:58:19.562Z,100.00
2022-08-26T05:00:50.488Z,100.00
2022-08-26T05:03:19.590Z,100.00
2022-08-26T05:05:50.067Z,100.00
2022-08-26T05:08:20.537Z,100.00
2022-08-26T05:10:56.526Z,100.00
2022-08-26T05:13:27.617Z,100.00
2022-08-26T05:16:01.124Z,100.00
2022-08-26T05:18:30.396Z,100.00
2022-08-26T05:20:58.592Z,100.00
2022-08-26T05:23:26.875Z,100.00
2022-08-26T05:25:59.192Z,100.00
2022-08-26T05:28:30.118Z,100.00
2022-08-26T05:30:58.517Z,100.00
2022-08-26T05:33:26.731Z,100.00
2022-08-26T05:35:55.115Z,100.00
2022-08-26T05:38:23.525Z,100.00
2022-08-26T05:40:53.262Z,100.00
2022-08-26T05:43:22.172Z,100.00
2022-08-26T05:45:51.233Z,100.00
2022-08-26T05:48:22.681Z,100.00
2022-08-26T05:50:53.717Z,100.00
2022-08-26T05:53:23.908Z,100.00
2022-08-26T05:55:56.943Z,100.00
2022-08-26T05:58:27.196Z,100.00
2022-08-26T06:01:01.528Z,100.00
2022-08-26T06:03:34.219Z,100.00
2022-08-26T06:06:12.175Z,100.00
2022-08-26T06:08:40.986Z,100.00
2022-08-26T06:11:12.737Z,100.00
2022-08-26T06:13:47.230Z,100.00
2022-08-26T06:16:19.755Z,100.00
2022-08-26T06:18:49.224Z,100.00
2022-08-26T06:21:30.353Z,100.00
2022-08-26T06:24:27.282Z,100.00
2022-08-26T06:27:02.791Z,100.00
2022-08-26T06:29:34.894Z,100.00
2022-08-26T06:32:05.460Z,100.00
2022-08-26T06:34:33.979Z,100.00
2022-08-26T06:37:03.553Z,100.00
2022-08-26T06:39:32.364Z,100.00
2022-08-26T06:42:02.656Z,100.00
2022-08-26T06:44:35.464Z,100.00
2022-08-26T06:47:03.651Z,100.00
2022-08-26T06:49:31.872Z,100.00
2022-08-26T06:52:00.134Z,97.95
2022-08-26T06:54:31.850Z,95.53
2022-08-26T06:57:01.294Z,93.61
2022-08-26T06:59:31.364Z,93.05
2022-08-26T07:02:00.297Z,92.20
2022-08-26T07:04:30.939Z,91.75
2022-08-26T07:07:00.322Z,90.41
2022-08-26T07:09:35.310Z,91.36
2022-08-26T07:12:06.824Z,90.29
2022-08-26T07:14:35.915Z,89.63
2022-08-26T07:17:04.231Z,88.96
2022-08-26T07:19:33.647Z,87.48
2022-08-26T07:22:04.416Z,85.95
2022-08-26T07:24:40.382Z,87.67
2022-08-26T07:27:14.711Z,88.17
2022-08-26T07:29:43.769Z,87.61
2022-08-26T07:32:14.158Z,88.42
2022-08-26T07:34:43.397Z,87.82
2022-08-26T07:37:12.225Z,88.09
2022-08-26T07:39:43.165Z,86.75
2022-08-26T07:42:14.869Z,85.79
2022-08-26T07:44:44.149Z,85.55
2022-08-26T07:47:25.405Z,86.10
2022-08-26T07:49:57.845Z,83.74
2022-08-26T07:52:30.005Z,82.98
2022-08-26T07:55:01.685Z,83.66
2022-08-26T07:57:30.537Z,83.58
2022-08-26T07:59:59.925Z,83.37
2022-08-26T08:02:29.640Z,85.09
2022-08-26T08:04:59.050Z,83.72
2022-08-26T08:07:45.040Z,83.42
2022-08-26T08:10:21.083Z,82.98
2022-08-26T08:12:51.170Z,82.03
2022-08-26T08:15:25.149Z,81.87
2022-08-26T08:17:54.836Z,81.66
2022-08-26T08:20:26.833Z,81.74
2022-08-26T08:22:56.973Z,81.57
2022-08-26T08:25:26.155Z,81.20
2022-08-26T08:27:54.360Z,79.97
2022-08-26T08:30:23.354Z,80.13
2022-08-26T08:32:52.452Z,78.40
2022-08-26T08:35:22.724Z,78.44
2022-08-26T08:37:54.491Z,79.52
2022-08-26T08:40:26.231Z,79.58
2022-08-26T08:43:06.259Z,79.46
2022-08-26T08:45:53.553Z,78.31
2022-08-26T08:48:27.986Z,79.89
2022-08-26T08:51:07.243Z,79.23
2022-08-26T08:53:41.795Z,80.61
2022-08-26T08:56:45.066Z,80.94
2022-08-26T08:59:34.220Z,79.94
2022-08-26T09:02:27.530Z,80.05
2022-08-26T09:05:05.438Z,81.19
2022-08-26T09:07:59.105Z,81.55
2022-08-26T09:10:59.699Z,80.11
2022-08-26T09:13:29.328Z,81.37
2022-08-26T09:16:10.857Z,80.61
2022-08-26T09:19:14.348Z,79.21
2022-08-26T09:21:43.035Z,79.55
2022-08-26T09:24:13.914Z,78.10
2022-08-26T09:26:48.517Z,77.64
2022-08-26T09:29:31.619Z,78.08
2022-08-26T09:32:25.208Z,77.01
2022-08-26T09:35:04.345Z,75.52
2022-08-26T09:40:27.397Z,74.71
2022-08-26T09:43:22.506Z,75.14
2022-08-26T09:45:59.437Z,75.08
2022-08-26T09:48:37.822Z,74.61
2022-08-26T09:51:23.535Z,75.04
2022-08-26T09:54:01.962Z,73.71
2022-08-26T09:56:39.224Z,73.02
2022-08-26T09:59:11.309Z,74.15
2022-08-26T10:01:43.856Z,72.11
2022-08-26T10:04:23.933Z,73.53
2022-08-26T10:07:04.902Z,72.04
2022-08-26T10:09:40.178Z,72.15
2022-08-26T10:12:15.684Z,73.08
2022-08-26T10:14:51.745Z,71.15
2022-08-26T10:17:28.044Z,72.25
2022-08-26T10:20:22.948Z,71.51
2022-08-26T10:23:00.981Z,70.10
2022-08-26T10:25:47.670Z,71.01
2022-08-26T10:28:49.277Z,72.45
2022-08-26T10:31:30.309Z,69.01
2022-08-26T10:34:06.741Z,68.21
2022-08-26T10:40:07.588Z,69.36
2022-08-26T10:42:52.381Z,67.77
2022-08-26T10:45:26.978Z,66.91
2022-08-26T10:48:00.030Z,67.51
2022-08-26T10:50:37.309Z,66.74
2022-08-26T10:53:46.865Z,69.30
2022-08-26T10:57:01.566Z,67.07
2022-08-26T10:59:44.486Z,67.89
2022-08-26T11:02:48.329Z,67.19
2022-08-26T11:05:24.897Z,67.16
2022-08-26T11:08:19.761Z,67.37
2022-08-26T11:10:58.901Z,68.42
2022-08-26T11:14:01.018Z,66.84
2022-08-26T11:16:45.682Z,67.06
2022-08-26T11:19:59.542Z,65.81
2022-08-26T11:22:36.389Z,66.84
2022-08-26T11:25:09.517Z,65.55
2022-08-26T11:27:40.203Z,66.13
2022-08-26T11:30:15.753Z,66.62
2022-08-26T11:32:53.720Z,64.51
2022-08-26T11:35:21.870Z,66.87
2022-08-26T11:38:28.858Z,64.17
2022-08-26T11:41:11.422Z,65.62
2022-08-26T11:43:41.101Z,64.60
2022-08-26T11:46:12.567Z,64.81
2022-08-26T11:48:43.409Z,64.60
2022-08-26T11:51:24.158Z,65.81
2022-08-26T11:53:53.885Z,64.54
2022-08-26T11:56:33.274Z,64.34
2022-08-26T11:59:08.752Z,64.07
2022-08-26T12:01:44.432Z,64.40
2022-08-26T12:04:31.044Z,65.04
2022-08-26T12:07:01.809Z,64.04
2022-08-26T12:09:37.540Z,61.88
2022-08-26T12:12:21.845Z,61.89
2022-08-26T12:14:59.623Z,63.58
2022-08-26T12:17:28.503Z,64.56
2022-08-26T12:19:56.843Z,61.51
2022-08-26T12:22:29.257Z,60.88
2022-08-26T12:25:08.583Z,61.93
2022-08-26T12:27:41.614Z,62.36
2022-08-26T12:30:19.274Z,63.56
2022-08-26T12:33:23.102Z,60.97
2022-08-26T12:35:56.717Z,61.88
2022-08-26T12:38:27.647Z,62.18
2022-08-26T12:40:57.106Z,61.69
2022-08-26T12:43:44.488Z,61.55
2022-08-26T12:46:17.565Z,60.52
2022-08-26T12:48:49.353Z,59.84
2022-08-26T12:51:26.550Z,59.52
2022-08-26T12:53:55.057Z,59.06
2022-08-26T12:56:27.958Z,59.19
2022-08-26T12:59:10.260Z,61.53
2022-08-26T13:01:44.261Z,59.84
2022-08-26T13:04:43.441Z,60.07
2022-08-26T13:07:25.917Z,58.27
2022-08-26T13:09:57.881Z,58.58
2022-08-26T13:12:33.789Z,57.54
2022-08-26T13:15:04.438Z,58.67
2022-08-26T13:17:35.098Z,57.29
2022-08-26T13:20:04.438Z,57.71
2022-08-26T13:22:33.251Z,58.31
2022-08-26T13:25:01.079Z,59.17
2022-08-26T13:27:29.575Z,58.37
2022-08-26T13:29:59.134Z,60.25
2022-08-26T13:32:27.898Z,59.33
2022-08-26T13:34:57.837Z,58.70
2022-08-26T13:37:34.908Z,59.01
2022-08-26T13:40:07.061Z,57.15
2022-08-26T13:42:35.697Z,58.60
2022-08-26T13:45:05.217Z,58.53
2022-08-26T13:47:33.630Z,60.46
2022-08-26T13:50:01.803Z,59.82
2022-08-26T13:52:31.001Z,60.29
2022-08-26T13:55:02.453Z,58.60
2022-08-26T13:57:31.185Z,59.55
2022-08-26T13:59:59.745Z,58.36
2022-08-26T14:02:28.440Z,58.20
2022-08-26T14:04:56.876Z,57.84
2022-08-26T14:07:25.057Z,58.25
2022-08-26T14:09:53.204Z,57.51
2022-08-26T14:12:21.702Z,57.25
2022-08-26T14:14:50.463Z,57.04
2022-08-26T14:17:23.398Z,56.88
2022-08-26T14:19:52.587Z,58.33
2022-08-26T14:22:22.901Z,57.61
2022-08-26T14:24:51.648Z,58.23
2022-08-26T14:27:19.524Z,57.85
2022-08-26T14:29:47.992Z,59.75
2022-08-26T14:32:26.610Z,59.08
2022-08-26T14:34:56.157Z,58.75
2022-08-26T14:37:24.736Z,60.28
2022-08-26T14:39:53.221Z,60.05
2022-08-26T14:42:31.459Z,62.57
2022-08-26T14:45:04.301Z,63.33
2022-08-26T14:47:32.666Z,62.49
2022-08-26T14:50:01.055Z,63.35
2022-08-26T14:52:29.825Z,63.37
2022-08-26T14:54:58.048Z,64.71
2022-08-26T14:57:26.515Z,64.50
2022-08-26T14:59:54.738Z,66.29
2022-08-26T15:02:33.461Z,68.95
2022-08-26T15:05:05.527Z,67.58
2022-08-26T15:07:33.940Z,66.67
2022-08-26T15:10:02.116Z,66.75
2022-08-26T15:12:30.493Z,65.93
2022-08-26T15:14:58.692Z,66.75
2022-08-26T15:17:26.691Z,72.46
2022-08-26T15:19:55.373Z,77.89
2022-08-26T15:22:24.093Z,83.49
2022-08-26T15:24:54.720Z,91.06
2022-08-26T15:27:22.914Z,97.53
2022-08-26T15:29:51.854Z,100.00
2022-08-26T15:32:20.562Z,99.46
2022-08-26T15:34:50.179Z,98.79
2022-08-26T15:37:18.076Z,97.12
2022-08-26T15:39:46.528Z,98.62
2022-08-26T15:42:15.170Z,97.19
2022-08-26T15:44:44.907Z,97.87
2022-08-26T15:47:14.334Z,99.77
2022-08-26T15:49:42.745Z,100.00
2022-08-26T15:52:11.107Z,100.00
2022-08-26T15:54:39.789Z,100.00
2022-08-26T15:57:11.466Z,100.00
2022-08-26T15:59:40.887Z,100.00
2022-08-26T16:02:09.754Z,100.00
2022-08-26T16:04:38.190Z,100.00
2022-08-26T16:07:06.581Z,100.00
2022-08-26T16:09:34.887Z,100.00
2022-08-26T16:12:03.388Z,100.00
2022-08-26T16:14:32.029Z,100.00
2022-08-26T16:17:01.037Z,100.00
2022-08-26T16:19:29.244Z,100.00
2022-08-26T16:21:57.472Z,100.00
2022-08-26T16:24:30.257Z,100.00
2022-08-26T16:26:58.862Z,100.00
2022-08-26T16:29:27.345Z,100.00
2022-08-26T16:31:55.849Z,100.00
2022-08-26T16:34:24.306Z,100.00
2022-08-26T16:36:52.763Z,100.00
2022-08-26T16:39:21.037Z,100.00
2022-08-26T16:41:49.234Z,100.00
2022-08-26T16:44:17.717Z,100.00
2022-08-26T16:46:46.181Z,100.00
2022-08-26T16:49:14.792Z,100.00
2022-08-26T16:51:43.027Z,100.00
2022-08-26T16:54:11.243Z,100.00
2022-08-26T16:56:39.924Z,100.00
2022-08-26T16:59:11.660Z,100.00
2022-08-26T17:01:40.178Z,100.00
2022-08-26T17:04:08.848Z,100.00
2022-08-26T17:06:37.113Z,100.00
2022-08-26T17:09:05.494Z,100.00
2022-08-26T17:11:34.441Z,100.00
2022-08-26T17:14:03.062Z,100.00
2022-08-26T17:16:31.712Z,100.00
2022-08-26T17:19:00.855Z,100.00
2022-08-26T17:21:29.581Z,100.00
2022-08-26T17:23:57.953Z,100.00
2022-08-26T17:26:27.257Z,100.00
2022-08-26T17:28:55.559Z,100.00
2022-08-26T17:31:24.466Z,100.00
2022-08-26T17:33:54.185Z,100.00
2022-08-26T17:36:27.893Z,100.00
2022-08-26T17:38:57.994Z,100.00
2022-08-26T17:41:26.582Z,100.00
2022-08-26T17:43:55.052Z,100.00
2022-08-26T17:46:23.658Z,100.00
2022-08-26T17:48:52.032Z,100.00
2022-08-26T17:51:20.673Z,100.00
2022-08-26T17:53:49.192Z,100.00
2022-08-26T17:56:24.259Z,100.00
2022-08-26T17:58:54.869Z,100.00
2022-08-26T18:01:27.550Z,100.00
2022-08-26T18:04:00.355Z,100.00
2022-08-26T18:06:30.485Z,100.00
2022-08-26T18:08:59.823Z,100.00
2022-08-26T18:11:31.307Z,100.00
2022-08-26T18:14:00.445Z,100.00
2022-08-26T18:16:31.802Z,100.00
2022-08-26T18:19:00.961Z,100.00
2022-08-26T18:21:29.418Z,100.00
2022-08-26T18:23:57.741Z,100.00
2022-08-26T18:26:33.592Z,100.00
2022-08-26T18:29:02.052Z,100.00
2022-08-26T18:31:30.957Z,100.00
2022-08-26T18:34:00.648Z,100.00
2022-08-26T18:36:34.154Z,100.00
2022-08-26T18:39:04.821Z,100.00
2022-08-26T18:41:42.528Z,100.00
2022-08-26T18:44:13.893Z,100.00
2022-08-26T18:46:43.813Z,100.00
2022-08-26T18:49:14.369Z,100.00
2022-08-26T18:51:43.496Z,100.00
2022-08-26T18:54:12.260Z,100.00
2022-08-26T18:56:42.442Z,100.00
2022-08-26T18:59:11.453Z,100.00
2022-08-26T19:01:42.425Z,100.00
2022-08-26T19:04:14.746Z,100.00
2022-08-26T19:06:47.105Z,100.00
2022-08-26T19:09:18.043Z,100.00
2022-08-26T19:11:47.172Z,100.00
2022-08-26T19:14:18.308Z,100.00
2022-08-26T19:16:49.671Z,100.00
2022-08-26T19:19:18.705Z,100.00
2022-08-26T19:21:47.841Z,100.00
2022-08-26T19:24:18.043Z,100.00
2022-08-26T19:26:50.383Z,100.00
2022-08-26T19:29:30.838Z,100.00
2022-08-26T19:31:59.572Z,100.00
2022-08-26T19:34:28.122Z,100.00
2022-08-26T19:36:58.373Z,100.00
2022-08-26T19:39:27.535Z,100.00
2022-08-26T19:41:55.823Z,100.00
2022-08-26T19:44:42.925Z,100.00
2022-08-26T19:47:13.022Z,100.00
2022-08-26T19:49:41.323Z,100.00
2022-08-26T19:52:11.106Z,100.00
2022-08-26T19:54:39.984Z,100.00
2022-08-26T19:57:08.282Z,100.00
2022-08-26T19:59:37.528Z,100.00
2022-08-26T20:02:10.546Z,100.00
2022-08-26T20:04:39.724Z,100.00
2022-08-26T20:07:08.817Z,100.00
2022-08-26T20:09:37.513Z,100.00
2022-08-26T20:12:07.075Z,100.00
2022-08-26T20:14:36.158Z,100.00
2022-08-26T20:17:05.391Z,100.00
2022-08-26T20:19:52.919Z,100.00
2022-08-26T20:22:21.595Z,100.00
2022-08-26T20:24:50.175Z,100.00
2022-08-26T20:27:18.664Z,100.00
2022-08-26T20:29:46.925Z,100.00
2022-08-26T20:32:15.255Z,100.00
2022-08-26T20:34:43.515Z,100.00
2022-08-26T20:37:12.389Z,100.00
2022-08-26T20:39:41.449Z,100.00
2022-08-26T20:42:19.912Z,100.00
2022-08-26T20:45:08.865Z,100.00
2022-08-26T20:47:57.508Z,100.00
2022-08-26T20:50:46.467Z,100.00
2022-08-26T20:53:35.922Z,100.00
2022-08-26T20:56:24.907Z,100.00
2022-08-26T20:59:14.313Z,100.00
2022-08-26T21:02:02.756Z,100.00
2022-08-26T21:04:51.245Z,100.00
2022-08-26T21:07:39.961Z,100.00
2022-08-26T21:10:30.472Z,100.00
2022-08-26T21:13:20.822Z,100.00
2022-08-26T21:16:09.673Z,100.00
2022-08-26T21:19:00.391Z,100.00
2022-08-26T21:21:50.399Z,100.00
2022-08-26T21:24:38.923Z,100.00
2022-08-26T21:27:27.978Z,100.00
2022-08-26T21:30:17.086Z,100.00
2022-08-26T21:33:05.665Z,100.00
2022-08-26T21:35:54.758Z,100.00
2022-08-26T21:38:43.729Z,100.00
2022-08-26T21:41:32.290Z,100.00
2022-08-26T21:44:20.775Z,100.00
2022-08-26T21:47:09.257Z,100.00
2022-08-26T21:50:00.028Z,100.00
2022-08-26T21:52:48.614Z,100.00
2022-08-26T21:55:38.603Z,100.00
2022-08-26T21:58:27.120Z,100.00
2022-08-26T22:01:20.774Z,100.00
2022-08-26T22:04:10.484Z,100.00
2022-08-26T22:06:59.135Z,100.00
2022-08-26T22:09:48.688Z,100.00
2022-08-26T22:12:38.080Z,100.00
2022-08-26T22:15:27.917Z,100.00
2022-08-26T22:18:17.177Z,100.00
2022-08-26T22:21:09.805Z,100.00
2022-08-26T22:23:58.731Z,100.00
2022-08-26T22:26:48.583Z,100.00
2022-08-26T22:29:37.956Z,100.00
2022-08-26T22:32:26.437Z,100.00
2022-08-26T22:35:29.036Z,100.00
2022-08-26T22:38:18.715Z,100.00
2022-08-26T22:41:09.835Z,100.00
2022-08-26T22:43:58.515Z,100.00
2022-08-26T22:46:48.085Z,100.00
2022-08-26T22:49:36.609Z,100.00
2022-08-26T22:52:25.124Z,100.00
2022-08-26T22:55:14.445Z,100.00
2022-08-26T22:58:03.193Z,100.00
2022-08-26T23:00:51.773Z,100.00
2022-08-26T23:03:44.926Z,100.00
2022-08-26T23:06:37.471Z,100.00
2022-08-26T23:09:26.037Z,100.00
2022-08-26T23:12:14.493Z,100.00
2022-08-26T23:15:03.283Z,100.00
2022-08-26T23:17:58.552Z,100.00
2022-08-26T23:20:47.739Z,100.00
2022-08-26T23:23:36.600Z,100.00
2022-08-26T23:26:24.971Z,100.00
2022-08-26T23:29:15.742Z,100.00
2022-08-26T23:32:05.320Z,100.00
2022-08-26T23:34:56.681Z,100.00
2022-08-26T23:37:48.495Z,100.00
2022-08-26T23:40:38.701Z,100.00
2022-08-26T23:43:29.552Z,100.00
2022-08-26T23:46:18.851Z,100.00
2022-08-26T23:49:07.095Z,100.00
2022-08-26T23:52:14.293Z,100.00
2022-08-26T23:55:02.835Z,100.00
2022-08-26T23:57:51.364Z,100.00
